Valley Falls, KS

5:56 AM CDT on March 30, 2017 (GMT -0500)
NW Lake Perry, KS | | Change Station

Elev 910 ft 39.20 °N, 95.48 °W | Updated 1 minute ago

Overcast
Overcast
56.5 °F
Feels Like 56.5 °F
N
10.0
Wind Variable Wind from East
Gusts 0.0 mph

Today
High -- | Low -- °F
--% Chance of Precip.
Yesterday
High -- | Low -- °F
Precip. -- in
Pressure 29.53 in
Visibility 10.0 miles
Clouds Mostly Cloudy 900 ft
Overcast 1400 ft
Dew Point 45 °F
Humidity 66%
Rainfall 0.12 in
Snow Depth Not available.
7:08 AM 7:44 PM
Waxing Crescent, 8% visible
METAR KTOP 301053Z AUTO 14004KT 10SM BKN009 OVC014 09/09 A2954 RMK AO2 SLP000 T00940089
Pressure 29.53 in
Visibility 10.0 miles
Clouds Mostly Cloudy 900 ft
Overcast 1400 ft
Dew Point 45 °F
Humidity 66%
Rainfall 0.12 in
Snow Depth Not available.
7:08 AM 7:44 PM
Waxing Crescent, 8% visible
METAR KTOP 301053Z AUTO 14004KT 10SM BKN009 OVC014 09/09 A2954 RMK AO2 SLP000 T00940089

Get Severe Weather Alerts

Thanks for signing up!

Be on the lookout for a verification email in your inbox.

You'll start receiving the daily forecast at 8 AM.

×

10-Day Weather Forecast

Almanac

Astronomy

Mar. 30, 2017 Rise Set
Actual Time
Civil Twilight
Nautical Twilight
Astronomical Twilight
Moon
Length of Visible Light
Length of Day
Tomorrow will be .
, % of the Moon is Illuminated

Today's Extremes

State Highs State Lows

Community

WunderPhotos

Upload Photos

1,962,540 photos uploaded!

WunderBlog® & News

Nearby

Air Quality

  Air Quality AQ Index Pollutant
Not available.

Snow Depth

Station Depth Elevation

Earthquake Activity

City Distance Mag. Time & Date
Minimum magnitude displayed is 2.5.

Earthquake Activity

City Distance Mag. Time & Date
Minimum magnitude displayed is 2.5.

Coastal Water Temperatures

Place Temperature

Stations

Nearby Weather Stations

Station Location Temp. Windchill Dew Point Humidity Wind Precip. Elev Updated Type
                   

Watches & Warnings

There are currently no watches in effect.